sensor_id;sensor_type;location;lat;lon;timestamp;P1;durP1;ratioP1;P2;durP2;ratioP2
3355;SDS011;1691;52.486;13.374;2023-03-02T00:01:35;47.23;;;20.00;;
3355;SDS011;1691;52.486;13.374;2023-03-02T00:04:12;45.90;;;19.83;;
3355;SDS011;1691;52.486;13.374;2023-03-02T00:06:54;39.40;;;21.17;;
3355;SDS011;1691;52.486;13.374;2023-03-02T00:09:24;37.07;;;19.30;;
3355;SDS011;1691;52.486;13.374;2023-03-02T00:11:53;37.27;;;16.07;;
3355;SDS011;1691;52.486;13.374;2023-03-02T00:14:20;31.17;;;16.57;;
3355;SDS011;1691;52.486;13.374;2023-03-02T00:16:47;34.23;;;16.20;;
3355;SDS011;1691;52.486;13.374;2023-03-02T00:19:14;34.80;;;14.80;;
3355;SDS011;1691;52.486;13.374;2023-03-02T00:21:41;44.87;;;15.20;;
3355;SDS011;1691;52.486;13.374;2023-03-02T00:24:08;26.00;;;16.13;;
3355;SDS011;1691;52.486;13.374;2023-03-02T00:26:35;25.20;;;14.30;;
3355;SDS011;1691;52.486;13.374;2023-03-02T00:29:03;37.83;;;15.40;;
3355;SDS011;1691;52.486;13.374;2023-03-02T00:31:30;26.97;;;15.53;;
3355;SDS011;1691;52.486;13.374;2023-03-02T00:33:57;20.07;;;12.60;;
3355;SDS011;1691;52.486;13.374;2023-03-02T00:36:24;26.10;;;13.73;;
3355;SDS011;1691;52.486;13.374;2023-03-02T00:38:51;24.50;;;13.80;;
3355;SDS011;1691;52.486;13.374;2023-03-02T00:41:18;26.20;;;13.90;;
3355;SDS011;1691;52.486;13.374;2023-03-02T00:43:47;41.80;;;19.90;;
3355;SDS011;1691;52.486;13.374;2023-03-02T00:46:16;65.23;;;22.67;;
3355;SDS011;1691;52.486;13.374;2023-03-02T00:48:47;33.53;;;14.50;;
3355;SDS011;1691;52.486;13.374;2023-03-02T00:51:15;28.00;;;13.63;;
3355;SDS011;1691;52.486;13.374;2023-03-02T00:53:43;20.93;;;11.47;;
3355;SDS011;1691;52.486;13.374;2023-03-02T00:56:10;21.00;;;11.43;;
3355;SDS011;1691;52.486;13.374;2023-03-02T00:58:37;34.97;;;12.47;;
3355;SDS011;1691;52.486;13.374;2023-03-02T01:01:08;20.43;;;12.37;;
3355;SDS011;1691;52.486;13.374;2023-03-02T01:03:38;26.33;;;11.93;;
3355;SDS011;1691;52.486;13.374;2023-03-02T01:06:12;21.87;;;12.47;;
3355;SDS011;1691;52.486;13.374;2023-03-02T01:08:44;27.07;;;12.53;;
3355;SDS011;1691;52.486;13.374;2023-03-02T01:11:12;21.77;;;11.40;;
3355;SDS011;1691;52.486;13.374;2023-03-02T01:13:41;17.80;;;11.63;;
3355;SDS011;1691;52.486;13.374;2023-03-02T01:16:09;19.20;;;12.30;;
3355;SDS011;1691;52.486;13.374;2023-03-02T01:18:37;21.80;;;11.33;;
3355;SDS011;1691;52.486;13.374;2023-03-02T01:21:05;18.47;;;10.90;;
3355;SDS011;1691;52.486;13.374;2023-03-02T01:23:38;22.77;;;12.20;;
3355;SDS011;1691;52.486;13.374;2023-03-02T01:26:05;27.90;;;13.13;;
3355;SDS011;1691;52.486;13.374;2023-03-02T01:28:32;17.83;;;11.40;;
3355;SDS011;1691;52.486;13.374;2023-03-02T01:30:59;13.60;;;10.77;;
3355;SDS011;1691;52.486;13.374;2023-03-02T01:33:28;24.57;;;11.10;;
3355;SDS011;1691;52.486;13.374;2023-03-02T01:35:56;21.17;;;12.47;;
3355;SDS011;1691;52.486;13.374;2023-03-02T01:38:23;18.13;;;12.20;;
3355;SDS011;1691;52.486;13.374;2023-03-02T01:40:50;19.70;;;13.13;;
3355;SDS011;1691;52.486;13.374;2023-03-02T01:43:16;20.27;;;10.60;;
3355;SDS011;1691;52.486;13.374;2023-03-02T01:45:45;18.67;;;11.60;;
3355;SDS011;1691;52.486;13.374;2023-03-02T01:48:41;20.57;;;12.37;;
3355;SDS011;1691;52.486;13.374;2023-03-02T01:51:24;23.20;;;12.13;;
3355;SDS011;1691;52.486;13.374;2023-03-02T01:53:55;25.20;;;12.77;;
3355;SDS011;1691;52.486;13.374;2023-03-02T01:56:28;19.80;;;12.73;;
3355;SDS011;1691;52.486;13.374;2023-03-02T01:59:00;16.33;;;11.37;;
3355;SDS011;1691;52.486;13.374;2023-03-02T02:01:35;19.17;;;11.97;;
3355;SDS011;1691;52.486;13.374;2023-03-02T02:04:06;21.30;;;12.53;;
3355;SDS011;1691;52.486;13.374;2023-03-02T02:06:36;16.20;;;11.47;;
3355;SDS011;1691;52.486;13.374;2023-03-02T02:09:07;20.83;;;13.00;;
3355;SDS011;1691;52.486;13.374;2023-03-02T02:11:38;19.50;;;12.87;;
3355;SDS011;1691;52.486;13.374;2023-03-02T02:14:05;16.80;;;12.70;;
3355;SDS011;1691;52.486;13.374;2023-03-02T02:16:32;19.57;;;12.10;;
3355;SDS011;1691;52.486;13.374;2023-03-02T02:19:01;20.90;;;12.97;;
3355;SDS011;1691;52.486;13.374;2023-03-02T02:21:38;19.03;;;11.97;;
3355;SDS011;1691;52.486;13.374;2023-03-02T02:24:14;18.20;;;12.20;;
3355;SDS011;1691;52.486;13.374;2023-03-02T02:26:53;19.90;;;13.50;;
3355;SDS011;1691;52.486;13.374;2023-03-02T02:31:58;18.50;;;12.63;;
3355;SDS011;1691;52.486;13.374;2023-03-02T02:35:04;19.67;;;12.30;;
3355;SDS011;1691;52.486;13.374;2023-03-02T02:37:41;21.03;;;11.70;;
3355;SDS011;1691;52.486;13.374;2023-03-02T02:40:22;25.87;;;13.47;;
3355;SDS011;1691;52.486;13.374;2023-03-02T02:43:14;21.10;;;12.43;;
3355;SDS011;1691;52.486;13.374;2023-03-02T02:45:45;16.60;;;12.53;;
3355;SDS011;1691;52.486;13.374;2023-03-02T02:48:18;30.93;;;13.60;;
3355;SDS011;1691;52.486;13.374;2023-03-02T02:50:50;24.67;;;12.60;;
3355;SDS011;1691;52.486;13.374;2023-03-02T02:56:24;17.10;;;13.07;;
3355;SDS011;1691;52.486;13.374;2023-03-02T02:59:00;20.80;;;13.80;;
3355;SDS011;1691;52.486;13.374;2023-03-02T03:01:43;26.80;;;13.30;;
3355;SDS011;1691;52.486;13.374;2023-03-02T03:04:12;21.57;;;12.73;;
3355;SDS011;1691;52.486;13.374;2023-03-02T03:06:54;21.90;;;13.63;;
3355;SDS011;1691;52.486;13.374;2023-03-02T03:09:26;18.60;;;12.83;;
3355;SDS011;1691;52.486;13.374;2023-03-02T03:11:55;23.00;;;13.60;;
3355;SDS011;1691;52.486;13.374;2023-03-02T03:14:28;22.73;;;13.70;;
3355;SDS011;1691;52.486;13.374;2023-03-02T03:17:00;22.60;;;13.27;;
3355;SDS011;1691;52.486;13.374;2023-03-02T03:19:29;22.70;;;13.50;;
3355;SDS011;1691;52.486;13.374;2023-03-02T03:22:00;23.30;;;13.50;;
3355;SDS011;1691;52.486;13.374;2023-03-02T03:24:28;18.13;;;12.80;;
3355;SDS011;1691;52.486;13.374;2023-03-02T03:26:57;28.50;;;15.67;;
3355;SDS011;1691;52.486;13.374;2023-03-02T03:29:26;21.60;;;13.40;;
3355;SDS011;1691;52.486;13.374;2023-03-02T03:31:55;22.87;;;14.07;;
3355;SDS011;1691;52.486;13.374;2023-03-02T03:34:23;22.63;;;13.30;;
3355;SDS011;1691;52.486;13.374;2023-03-02T03:36:51;26.00;;;13.83;;
3355;SDS011;1691;52.486;13.374;2023-03-02T03:39:18;22.23;;;13.17;;
3355;SDS011;1691;52.486;13.374;2023-03-02T03:41:45;30.13;;;14.90;;
3355;SDS011;1691;52.486;13.374;2023-03-02T03:44:12;28.77;;;14.73;;
3355;SDS011;1691;52.486;13.374;2023-03-02T03:46:39;24.37;;;13.80;;
3355;SDS011;1691;52.486;13.374;2023-03-02T03:49:06;20.30;;;12.97;;
3355;SDS011;1691;52.486;13.374;2023-03-02T03:51:33;26.17;;;14.90;;
3355;SDS011;1691;52.486;13.374;2023-03-02T03:54:03;20.33;;;14.17;;
3355;SDS011;1691;52.486;13.374;2023-03-02T03:56:35;20.63;;;13.30;;
3355;SDS011;1691;52.486;13.374;2023-03-02T03:59:07;22.87;;;15.47;;
3355;SDS011;1691;52.486;13.374;2023-03-02T04:01:47;20.23;;;13.50;;
3355;SDS011;1691;52.486;13.374;2023-03-02T04:04:21;25.83;;;14.27;;
3355;SDS011;1691;52.486;13.374;2023-03-02T04:06:52;26.57;;;15.20;;
3355;SDS011;1691;52.486;13.374;2023-03-02T04:09:20;23.47;;;15.20;;
3355;SDS011;1691;52.486;13.374;2023-03-02T04:11:49;22.97;;;14.77;;
3355;SDS011;1691;52.486;13.374;2023-03-02T04:14:20;23.10;;;14.43;;
3355;SDS011;1691;52.486;13.374;2023-03-02T04:16:49;21.27;;;14.03;;
3355;SDS011;1691;52.486;13.374;2023-03-02T04:19:17;21.97;;;15.30;;
3355;SDS011;1691;52.486;13.374;2023-03-02T04:21:46;27.00;;;16.13;;
3355;SDS011;1691;52.486;13.374;2023-03-02T04:24:16;21.27;;;14.30;;
3355;SDS011;1691;52.486;13.374;2023-03-02T04:26:45;24.30;;;15.33;;
3355;SDS011;1691;52.486;13.374;2023-03-02T04:29:14;29.83;;;15.00;;
3355;SDS011;1691;52.486;13.374;2023-03-02T04:31:43;21.90;;;14.70;;
3355;SDS011;1691;52.486;13.374;2023-03-02T04:34:09;20.60;;;13.63;;
3355;SDS011;1691;52.486;13.374;2023-03-02T04:36:37;34.73;;;14.83;;
3355;SDS011;1691;52.486;13.374;2023-03-02T04:39:05;29.07;;;14.97;;
3355;SDS011;1691;52.486;13.374;2023-03-02T04:41:33;25.87;;;14.47;;
3355;SDS011;1691;52.486;13.374;2023-03-02T04:44:01;22.90;;;13.93;;
3355;SDS011;1691;52.486;13.374;2023-03-02T04:46:28;23.43;;;14.20;;
3355;SDS011;1691;52.486;13.374;2023-03-02T04:48:55;32.13;;;16.43;;
3355;SDS011;1691;52.486;13.374;2023-03-02T04:51:26;28.13;;;16.07;;
3355;SDS011;1691;52.486;13.374;2023-03-02T04:53:57;22.80;;;14.50;;
3355;SDS011;1691;52.486;13.374;2023-03-02T04:56:31;23.80;;;14.73;;
3355;SDS011;1691;52.486;13.374;2023-03-02T04:58:58;21.40;;;14.40;;
3355;SDS011;1691;52.486;13.374;2023-03-02T05:01:26;20.60;;;13.00;;
3355;SDS011;1691;52.486;13.374;2023-03-02T05:03:53;28.00;;;14.60;;
3355;SDS011;1691;52.486;13.374;2023-03-02T05:06:20;25.90;;;14.83;;
3355;SDS011;1691;52.486;13.374;2023-03-02T05:08:50;21.60;;;14.10;;
3355;SDS011;1691;52.486;13.374;2023-03-02T05:11:18;23.30;;;13.77;;
3355;SDS011;1691;52.486;13.374;2023-03-02T05:13:56;24.33;;;15.10;;
3355;SDS011;1691;52.486;13.374;2023-03-02T05:16:26;23.37;;;14.97;;
3355;SDS011;1691;52.486;13.374;2023-03-02T05:18:58;19.23;;;13.53;;
3355;SDS011;1691;52.486;13.374;2023-03-02T05:21:26;21.00;;;13.57;;
3355;SDS011;1691;52.486;13.374;2023-03-02T05:23:53;20.40;;;14.23;;
3355;SDS011;1691;52.486;13.374;2023-03-02T05:26:20;21.67;;;14.20;;
3355;SDS011;1691;52.486;13.374;2023-03-02T05:28:47;27.07;;;15.90;;
3355;SDS011;1691;52.486;13.374;2023-03-02T05:31:17;24.43;;;16.17;;
3355;SDS011;1691;52.486;13.374;2023-03-02T05:33:49;23.53;;;15.53;;
3355;SDS011;1691;52.486;13.374;2023-03-02T05:36:16;39.07;;;16.07;;
3355;SDS011;1691;52.486;13.374;2023-03-02T05:38:46;29.60;;;16.60;;
3355;SDS011;1691;52.486;13.374;2023-03-02T05:41:13;26.70;;;15.63;;
3355;SDS011;1691;52.486;13.374;2023-03-02T05:43:40;26.80;;;15.40;;
3355;SDS011;1691;52.486;13.374;2023-03-02T05:46:07;24.13;;;16.70;;
3355;SDS011;1691;52.486;13.374;2023-03-02T05:48:34;24.33;;;15.57;;
3355;SDS011;1691;52.486;13.374;2023-03-02T05:51:01;48.67;;;17.00;;
3355;SDS011;1691;52.486;13.374;2023-03-02T05:53:28;31.00;;;17.67;;
3355;SDS011;1691;52.486;13.374;2023-03-02T05:55:55;27.40;;;17.90;;
3355;SDS011;1691;52.486;13.374;2023-03-02T05:58:22;28.10;;;17.23;;
3355;SDS011;1691;52.486;13.374;2023-03-02T06:00:49;31.47;;;18.40;;
3355;SDS011;1691;52.486;13.374;2023-03-02T06:03:17;34.97;;;18.17;;
3355;SDS011;1691;52.486;13.374;2023-03-02T06:05:44;32.80;;;18.03;;
3355;SDS011;1691;52.486;13.374;2023-03-02T06:08:16;42.17;;;18.60;;
3355;SDS011;1691;52.486;13.374;2023-03-02T06:10:45;36.43;;;18.50;;
3355;SDS011;1691;52.486;13.374;2023-03-02T06:13:12;34.90;;;19.20;;
3355;SDS011;1691;52.486;13.374;2023-03-02T06:15:39;27.90;;;17.00;;
3355;SDS011;1691;52.486;13.374;2023-03-02T06:18:07;32.63;;;19.20;;
3355;SDS011;1691;52.486;13.374;2023-03-02T06:20:34;36.00;;;18.77;;
3355;SDS011;1691;52.486;13.374;2023-03-02T06:23:01;27.83;;;17.97;;
3355;SDS011;1691;52.486;13.374;2023-03-02T06:25:28;76.53;;;36.87;;
3355;SDS011;1691;52.486;13.374;2023-03-02T06:27:55;58.87;;;32.37;;
3355;SDS011;1691;52.486;13.374;2023-03-02T06:30:22;76.83;;;37.30;;
3355;SDS011;1691;52.486;13.374;2023-03-02T06:32:51;88.67;;;40.30;;
3355;SDS011;1691;52.486;13.374;2023-03-02T06:35:18;224.37;;;78.43;;
3355;SDS011;1691;52.486;13.374;2023-03-02T06:37:45;140.80;;;50.03;;
3355;SDS011;1691;52.486;13.374;2023-03-02T06:40:12;69.57;;;32.30;;
3355;SDS011;1691;52.486;13.374;2023-03-02T06:42:40;77.83;;;38.20;;
3355;SDS011;1691;52.486;13.374;2023-03-02T06:45:08;50.13;;;25.93;;
3355;SDS011;1691;52.486;13.374;2023-03-02T06:47:35;34.10;;;19.07;;
3355;SDS011;1691;52.486;13.374;2023-03-02T06:50:03;36.93;;;19.93;;
3355;SDS011;1691;52.486;13.374;2023-03-02T06:52:31;31.47;;;17.70;;
3355;SDS011;1691;52.486;13.374;2023-03-02T06:54:58;33.80;;;18.83;;
3355;SDS011;1691;52.486;13.374;2023-03-02T06:57:25;36.50;;;18.63;;
3355;SDS011;1691;52.486;13.374;2023-03-02T06:59:59;39.13;;;20.03;;
3355;SDS011;1691;52.486;13.374;2023-03-02T07:02:45;40.17;;;21.17;;
3355;SDS011;1691;52.486;13.374;2023-03-02T07:05:15;47.70;;;24.33;;
3355;SDS011;1691;52.486;13.374;2023-03-02T07:07:42;43.70;;;23.63;;
3355;SDS011;1691;52.486;13.374;2023-03-02T07:10:09;43.47;;;22.57;;
3355;SDS011;1691;52.486;13.374;2023-03-02T07:12:39;40.00;;;21.40;;
3355;SDS011;1691;52.486;13.374;2023-03-02T07:15:07;41.30;;;20.60;;
3355;SDS011;1691;52.486;13.374;2023-03-02T07:17:37;38.47;;;20.13;;
3355;SDS011;1691;52.486;13.374;2023-03-02T07:20:06;47.37;;;20.50;;
3355;SDS011;1691;52.486;13.374;2023-03-02T07:22:34;32.20;;;19.80;;
3355;SDS011;1691;52.486;13.374;2023-03-02T07:25:01;37.43;;;21.30;;
3355;SDS011;1691;52.486;13.374;2023-03-02T07:27:28;34.30;;;18.50;;
3355;SDS011;1691;52.486;13.374;2023-03-02T07:29:56;32.70;;;19.97;;
3355;SDS011;1691;52.486;13.374;2023-03-02T07:32:23;38.70;;;20.27;;
3355;SDS011;1691;52.486;13.374;2023-03-02T07:34:50;36.93;;;20.80;;
3355;SDS011;1691;52.486;13.374;2023-03-02T07:37:17;42.57;;;20.93;;
3355;SDS011;1691;52.486;13.374;2023-03-02T07:39:46;39.20;;;19.40;;
3355;SDS011;1691;52.486;13.374;2023-03-02T07:42:14;49.33;;;26.27;;
3355;SDS011;1691;52.486;13.374;2023-03-02T07:44:42;42.77;;;23.97;;
3355;SDS011;1691;52.486;13.374;2023-03-02T07:47:09;34.30;;;20.17;;
3355;SDS011;1691;52.486;13.374;2023-03-02T07:49:36;35.37;;;21.63;;
3355;SDS011;1691;52.486;13.374;2023-03-02T07:52:04;42.57;;;20.63;;
3355;SDS011;1691;52.486;13.374;2023-03-02T07:54:31;35.67;;;20.20;;
3355;SDS011;1691;52.486;13.374;2023-03-02T07:56:59;42.83;;;19.70;;
3355;SDS011;1691;52.486;13.374;2023-03-02T07:59:26;40.90;;;20.77;;
3355;SDS011;1691;52.486;13.374;2023-03-02T08:01:54;40.00;;;20.03;;
3355;SDS011;1691;52.486;13.374;2023-03-02T08:04:22;35.07;;;20.53;;
3355;SDS011;1691;52.486;13.374;2023-03-02T08:06:50;37.80;;;20.47;;
3355;SDS011;1691;52.486;13.374;2023-03-02T08:09:17;39.87;;;22.43;;
3355;SDS011;1691;52.486;13.374;2023-03-02T08:11:44;31.73;;;19.37;;
3355;SDS011;1691;52.486;13.374;2023-03-02T08:14:13;37.00;;;22.30;;
3355;SDS011;1691;52.486;13.374;2023-03-02T08:16:40;33.70;;;21.10;;
3355;SDS011;1691;52.486;13.374;2023-03-02T08:19:07;37.20;;;20.27;;
3355;SDS011;1691;52.486;13.374;2023-03-02T08:21:34;42.73;;;22.73;;
3355;SDS011;1691;52.486;13.374;2023-03-02T08:24:01;31.10;;;20.97;;
3355;SDS011;1691;52.486;13.374;2023-03-02T08:26:28;37.13;;;21.90;;
3355;SDS011;1691;52.486;13.374;2023-03-02T08:28:56;41.63;;;23.73;;
3355;SDS011;1691;52.486;13.374;2023-03-02T08:31:24;34.13;;;21.00;;
3355;SDS011;1691;52.486;13.374;2023-03-02T08:33:52;39.10;;;24.17;;
3355;SDS011;1691;52.486;13.374;2023-03-02T08:36:19;48.80;;;25.80;;
3355;SDS011;1691;52.486;13.374;2023-03-02T08:38:47;43.73;;;24.50;;
3355;SDS011;1691;52.486;13.374;2023-03-02T08:41:16;40.63;;;23.00;;
3355;SDS011;1691;52.486;13.374;2023-03-02T08:43:45;38.93;;;23.03;;
3355;SDS011;1691;52.486;13.374;2023-03-02T08:46:15;36.53;;;21.60;;
3355;SDS011;1691;52.486;13.374;2023-03-02T08:48:44;36.90;;;23.10;;
3355;SDS011;1691;52.486;13.374;2023-03-02T08:51:12;41.60;;;23.03;;
3355;SDS011;1691;52.486;13.374;2023-03-02T08:53:44;40.50;;;24.07;;
3355;SDS011;1691;52.486;13.374;2023-03-02T08:56:20;39.50;;;22.80;;
3355;SDS011;1691;52.486;13.374;2023-03-02T08:58:52;38.90;;;23.23;;
3355;SDS011;1691;52.486;13.374;2023-03-02T09:01:22;42.13;;;23.57;;
3355;SDS011;1691;52.486;13.374;2023-03-02T09:03:57;38.67;;;23.93;;
3355;SDS011;1691;52.486;13.374;2023-03-02T09:06:26;41.17;;;22.50;;
3355;SDS011;1691;52.486;13.374;2023-03-02T09:08:55;54.80;;;25.20;;
3355;SDS011;1691;52.486;13.374;2023-03-02T09:11:23;49.97;;;26.67;;
3355;SDS011;1691;52.486;13.374;2023-03-02T09:13:51;42.70;;;24.23;;
3355;SDS011;1691;52.486;13.374;2023-03-02T09:16:19;44.40;;;25.50;;
3355;SDS011;1691;52.486;13.374;2023-03-02T09:18:47;43.87;;;23.57;;
3355;SDS011;1691;52.486;13.374;2023-03-02T09:21:14;40.20;;;24.10;;
3355;SDS011;1691;52.486;13.374;2023-03-02T09:23:43;44.87;;;25.13;;
3355;SDS011;1691;52.486;13.374;2023-03-02T09:26:11;44.50;;;23.10;;
3355;SDS011;1691;52.486;13.374;2023-03-02T09:28:38;35.60;;;22.30;;
3355;SDS011;1691;52.486;13.374;2023-03-02T09:31:05;38.10;;;24.50;;
3355;SDS011;1691;52.486;13.374;2023-03-02T09:33:34;44.57;;;24.90;;
3355;SDS011;1691;52.486;13.374;2023-03-02T09:36:08;44.77;;;23.10;;
3355;SDS011;1691;52.486;13.374;2023-03-02T09:38:37;40.57;;;23.53;;
3355;SDS011;1691;52.486;13.374;2023-03-02T09:47:04;33.73;;;22.00;;
3355;SDS011;1691;52.486;13.374;2023-03-02T09:50:23;39.60;;;20.63;;
3355;SDS011;1691;52.486;13.374;2023-03-02T09:55:37;30.07;;;20.90;;
3355;SDS011;1691;52.486;13.374;2023-03-02T09:58:05;28.33;;;20.47;;
3355;SDS011;1691;52.486;13.374;2023-03-02T10:00:42;30.90;;;20.43;;
3355;SDS011;1691;52.486;13.374;2023-03-02T10:03:21;39.43;;;21.33;;
3355;SDS011;1691;52.486;13.374;2023-03-02T10:05:54;35.33;;;21.70;;
3355;SDS011;1691;52.486;13.374;2023-03-02T10:08:22;30.63;;;21.10;;
3355;SDS011;1691;52.486;13.374;2023-03-02T10:10:56;32.00;;;20.40;;
3355;SDS011;1691;52.486;13.374;2023-03-02T10:14:01;34.17;;;19.13;;
3355;SDS011;1691;52.486;13.374;2023-03-02T10:16:41;27.50;;;19.77;;
3355;SDS011;1691;52.486;13.374;2023-03-02T10:19:49;39.73;;;18.30;;
3355;SDS011;1691;52.486;13.374;2023-03-02T10:22:26;33.93;;;19.97;;
3355;SDS011;1691;52.486;13.374;2023-03-02T10:27:59;35.10;;;21.27;;
3355;SDS011;1691;52.486;13.374;2023-03-02T10:30:40;35.13;;;20.83;;
3355;SDS011;1691;52.486;13.374;2023-03-02T10:33:17;33.47;;;20.43;;
3355;SDS011;1691;52.486;13.374;2023-03-02T10:35:47;27.83;;;19.47;;
3355;SDS011;1691;52.486;13.374;2023-03-02T10:38:19;29.60;;;20.37;;
3355;SDS011;1691;52.486;13.374;2023-03-02T10:43:32;28.60;;;19.20;;
3355;SDS011;1691;52.486;13.374;2023-03-02T10:46:15;25.33;;;18.20;;
3355;SDS011;1691;52.486;13.374;2023-03-02T10:49:00;29.00;;;18.17;;
3355;SDS011;1691;52.486;13.374;2023-03-02T10:51:31;23.43;;;17.17;;
3355;SDS011;1691;52.486;13.374;2023-03-02T10:54:04;36.53;;;18.27;;
3355;SDS011;1691;52.486;13.374;2023-03-02T10:56:35;24.10;;;16.87;;
3355;SDS011;1691;52.486;13.374;2023-03-02T12:03:47;40.77;;;20.73;;
3355;SDS011;1691;52.486;13.374;2023-03-02T12:07:32;21.00;;;13.40;;
3355;SDS011;1691;52.486;13.374;2023-03-02T12:23:56;22.93;;;14.23;;
3355;SDS011;1691;52.486;13.374;2023-03-02T12:36:27;16.17;;;11.73;;
3355;SDS011;1691;52.486;13.374;2023-03-02T12:56:47;21.00;;;13.20;;
3355;SDS011;1691;52.486;13.374;2023-03-02T13:56:04;27.77;;;13.00;;
3355;SDS011;1691;52.486;13.374;2023-03-02T14:03:45;16.90;;;11.97;;
3355;SDS011;1691;52.486;13.374;2023-03-02T14:07:49;26.23;;;12.00;;
3355;SDS011;1691;52.486;13.374;2023-03-02T14:12:00;15.90;;;12.60;;
3355;SDS011;1691;52.486;13.374;2023-03-02T14:35:09;19.80;;;10.60;;
3355;SDS011;1691;52.486;13.374;2023-03-02T14:43:29;15.53;;;8.40;;
3355;SDS011;1691;52.486;13.374;2023-03-02T14:45:57;13.47;;;9.77;;
3355;SDS011;1691;52.486;13.374;2023-03-02T14:48:23;10.73;;;9.73;;
3355;SDS011;1691;52.486;13.374;2023-03-02T14:50:50;13.23;;;11.20;;
3355;SDS011;1691;52.486;13.374;2023-03-02T14:53:18;15.23;;;11.33;;
3355;SDS011;1691;52.486;13.374;2023-03-02T14:55:52;12.07;;;10.67;;
3355;SDS011;1691;52.486;13.374;2023-03-02T14:58:19;10.60;;;9.10;;
3355;SDS011;1691;52.486;13.374;2023-03-02T15:00:58;10.80;;;9.57;;
3355;SDS011;1691;52.486;13.374;2023-03-02T15:03:26;17.50;;;10.40;;
3355;SDS011;1691;52.486;13.374;2023-03-02T15:05:54;10.57;;;9.57;;
3355;SDS011;1691;52.486;13.374;2023-03-02T15:08:27;15.13;;;11.33;;
3355;SDS011;1691;52.486;13.374;2023-03-02T15:10:54;10.40;;;9.30;;
3355;SDS011;1691;52.486;13.374;2023-03-02T15:13:21;14.10;;;10.00;;
3355;SDS011;1691;52.486;13.374;2023-03-02T15:15:48;12.30;;;11.00;;
3355;SDS011;1691;52.486;13.374;2023-03-02T15:18:15;20.83;;;10.90;;
3355;SDS011;1691;52.486;13.374;2023-03-02T15:20:45;15.57;;;11.20;;
3355;SDS011;1691;52.486;13.374;2023-03-02T15:23:12;20.40;;;12.80;;
3355;SDS011;1691;52.486;13.374;2023-03-02T15:25:39;34.30;;;12.70;;
3355;SDS011;1691;52.486;13.374;2023-03-02T15:28:06;21.00;;;14.30;;
3355;SDS011;1691;52.486;13.374;2023-03-02T15:30:32;22.03;;;14.07;;
3355;SDS011;1691;52.486;13.374;2023-03-02T15:32:59;23.27;;;15.50;;
3355;SDS011;1691;52.486;13.374;2023-03-02T15:35:27;26.40;;;16.10;;
3355;SDS011;1691;52.486;13.374;2023-03-02T15:37:54;36.63;;;17.10;;
3355;SDS011;1691;52.486;13.374;2023-03-02T15:40:23;25.30;;;14.37;;
3355;SDS011;1691;52.486;13.374;2023-03-02T15:42:50;26.10;;;15.90;;
3355;SDS011;1691;52.486;13.374;2023-03-02T15:45:18;24.53;;;16.20;;
3355;SDS011;1691;52.486;13.374;2023-03-02T15:47:45;28.07;;;16.57;;
3355;SDS011;1691;52.486;13.374;2023-03-02T15:50:12;30.13;;;16.93;;
3355;SDS011;1691;52.486;13.374;2023-03-02T15:52:39;23.70;;;13.67;;
3355;SDS011;1691;52.486;13.374;2023-03-02T15:55:07;28.50;;;15.13;;
3355;SDS011;1691;52.486;13.374;2023-03-02T15:57:35;29.47;;;17.43;;
3355;SDS011;1691;52.486;13.374;2023-03-02T16:00:04;44.53;;;24.37;;
3355;SDS011;1691;52.486;13.374;2023-03-02T16:02:32;24.87;;;15.03;;
3355;SDS011;1691;52.486;13.374;2023-03-02T16:04:59;21.37;;;12.57;;
3355;SDS011;1691;52.486;13.374;2023-03-02T16:07:26;21.10;;;13.83;;
3355;SDS011;1691;52.486;13.374;2023-03-02T16:09:53;21.23;;;14.37;;
3355;SDS011;1691;52.486;13.374;2023-03-02T16:12:20;34.93;;;16.97;;
3355;SDS011;1691;52.486;13.374;2023-03-02T16:14:50;28.77;;;17.30;;
3355;SDS011;1691;52.486;13.374;2023-03-02T16:17:17;34.77;;;19.40;;
3355;SDS011;1691;52.486;13.374;2023-03-02T16:19:44;42.53;;;20.00;;
3355;SDS011;1691;52.486;13.374;2023-03-02T16:22:11;41.43;;;20.93;;
3355;SDS011;1691;52.486;13.374;2023-03-02T16:24:38;39.30;;;19.80;;
3355;SDS011;1691;52.486;13.374;2023-03-02T16:27:07;39.43;;;21.43;;
3355;SDS011;1691;52.486;13.374;2023-03-02T16:29:34;62.53;;;22.60;;
3355;SDS011;1691;52.486;13.374;2023-03-02T16:32:01;43.50;;;22.57;;
3355;SDS011;1691;52.486;13.374;2023-03-02T16:34:28;43.33;;;22.13;;
3355;SDS011;1691;52.486;13.374;2023-03-02T16:36:55;43.43;;;23.00;;
3355;SDS011;1691;52.486;13.374;2023-03-02T16:39:22;41.77;;;21.57;;
3355;SDS011;1691;52.486;13.374;2023-03-02T16:41:49;39.00;;;21.80;;
3355;SDS011;1691;52.486;13.374;2023-03-02T16:44:16;43.67;;;22.07;;
3355;SDS011;1691;52.486;13.374;2023-03-02T16:46:43;47.83;;;23.47;;
3355;SDS011;1691;52.486;13.374;2023-03-02T16:49:11;40.60;;;22.23;;
3355;SDS011;1691;52.486;13.374;2023-03-02T16:51:40;44.80;;;24.17;;
3355;SDS011;1691;52.486;13.374;2023-03-02T16:54:07;43.63;;;23.47;;
3355;SDS011;1691;52.486;13.374;2023-03-02T16:56:35;38.40;;;22.23;;
3355;SDS011;1691;52.486;13.374;2023-03-02T16:59:02;44.93;;;23.40;;
3355;SDS011;1691;52.486;13.374;2023-03-02T17:01:29;27.23;;;18.50;;
3355;SDS011;1691;52.486;13.374;2023-03-02T17:03:56;45.00;;;23.30;;
3355;SDS011;1691;52.486;13.374;2023-03-02T17:06:23;34.60;;;19.90;;
3355;SDS011;1691;52.486;13.374;2023-03-02T17:08:50;27.27;;;18.60;;
3355;SDS011;1691;52.486;13.374;2023-03-02T17:11:18;27.83;;;16.60;;
3355;SDS011;1691;52.486;13.374;2023-03-02T17:13:45;18.43;;;11.87;;
3355;SDS011;1691;52.486;13.374;2023-03-02T17:16:12;33.23;;;16.20;;
3355;SDS011;1691;52.486;13.374;2023-03-02T17:18:41;13.50;;;10.83;;
3355;SDS011;1691;52.486;13.374;2023-03-02T17:21:12;14.60;;;10.53;;
3355;SDS011;1691;52.486;13.374;2023-03-02T17:23:41;15.60;;;10.80;;
3355;SDS011;1691;52.486;13.374;2023-03-02T17:26:08;15.23;;;11.80;;
3355;SDS011;1691;52.486;13.374;2023-03-02T17:28:35;12.83;;;11.50;;
3355;SDS011;1691;52.486;13.374;2023-03-02T17:31:03;17.70;;;12.20;;
3355;SDS011;1691;52.486;13.374;2023-03-02T17:33:31;13.67;;;12.27;;
3355;SDS011;1691;52.486;13.374;2023-03-02T17:36:06;15.90;;;12.07;;
3355;SDS011;1691;52.486;13.374;2023-03-02T17:38:37;12.20;;;10.20;;
3355;SDS011;1691;52.486;13.374;2023-03-02T17:41:06;12.30;;;11.00;;
3355;SDS011;1691;52.486;13.374;2023-03-02T17:43:36;184.50;;;67.17;;
3355;SDS011;1691;52.486;13.374;2023-03-02T17:46:09;185.37;;;69.97;;
3355;SDS011;1691;52.486;13.374;2023-03-02T17:48:46;17.07;;;11.20;;
3355;SDS011;1691;52.486;13.374;2023-03-02T17:51:15;10.97;;;9.43;;
3355;SDS011;1691;52.486;13.374;2023-03-02T17:53:46;11.97;;;9.10;;
3355;SDS011;1691;52.486;13.374;2023-03-02T17:56:15;11.40;;;9.20;;
3355;SDS011;1691;52.486;13.374;2023-03-02T17:58:44;9.87;;;8.90;;
3355;SDS011;1691;52.486;13.374;2023-03-02T18:01:12;12.37;;;8.97;;
3355;SDS011;1691;52.486;13.374;2023-03-02T18:03:41;10.23;;;9.23;;
3355;SDS011;1691;52.486;13.374;2023-03-02T18:06:10;9.53;;;8.73;;
3355;SDS011;1691;52.486;13.374;2023-03-02T18:08:38;9.20;;;8.40;;
3355;SDS011;1691;52.486;13.374;2023-03-02T18:11:06;9.63;;;8.83;;
3355;SDS011;1691;52.486;13.374;2023-03-02T18:13:33;9.63;;;8.63;;
3355;SDS011;1691;52.486;13.374;2023-03-02T18:15:59;8.73;;;8.07;;
3355;SDS011;1691;52.486;13.374;2023-03-02T18:18:26;9.50;;;8.70;;
3355;SDS011;1691;52.486;13.374;2023-03-02T18:20:53;9.47;;;8.20;;
3355;SDS011;1691;52.486;13.374;2023-03-02T18:23:21;40.73;;;20.10;;
3355;SDS011;1691;52.486;13.374;2023-03-02T18:25:47;12.73;;;9.50;;
3355;SDS011;1691;52.486;13.374;2023-03-02T18:28:15;9.40;;;8.70;;
3355;SDS011;1691;52.486;13.374;2023-03-02T18:30:42;9.93;;;8.80;;